WetterOnline ( https://www.wetteronline.de )

Wetter aktuell Straubing

Aktuelles Wetter: Straubing (360m)

6-stündlich | Neueste Meldungen
Ortszeit Temperatur Wetter
Di, 16.04. 8:00 4.4° C bedeckt
Di, 16.04. 2:00 6.6° C bedeckt
Mo, 15.04. 20:00 12.2° C bewölkt
Mo, 15.04. 14:00 13.6° C Regen
Mo, 15.04. 8:00 12.9° C leichter Regen
Mo, 15.04. 2:00 12.2° C bedeckt
So, 14.04. 20:00 18.4° C bedeckt
So, 14.04. 14:00 23.0° C wolkig
Ortszeit Temperatur Wetter
Di, 16.04. 9:30 6.2° C bedeckt
Di, 16.04. 9:20 6.2° C bedeckt
Di, 16.04. 9:10 5.6° C Sprühregen
Di, 16.04. 9:00 5.1° C bewölkt
Di, 16.04. 8:50 5.1° C bewölkt
Di, 16.04. 8:40 4.8° C bedeckt
Di, 16.04. 8:30 4.4° C Sprühregen
Di, 16.04. 8:00 4.4° C bedeckt
Di, 16.04. 7:30 4.1° C Sprühregen
Di, 16.04. 7:00 3.6° C Sprühregen
Di, 16.04. 6:30 3.3° C Sprühregen
Ortszeit Relative Feuchte Sichtweite
Di, 16.04. 8:00 84% 65 km
Di, 16.04. 2:00 64% >70 km
Mo, 15.04. 20:00 96% 30 km
Mo, 15.04. 14:00 88% 35 km
Mo, 15.04. 8:00 92% 30 km
Mo, 15.04. 2:00 90% 35 km
So, 14.04. 20:00 63% 55 km
So, 14.04. 14:00 45% 35 km
Ortszeit Relative Feuchte Sichtweite
Di, 16.04. 9:30 74% 50 km
Di, 16.04. 9:20 74% -
Di, 16.04. 9:10 76% -
Di, 16.04. 9:00 83% 50 km
Di, 16.04. 8:50 83% -
Di, 16.04. 8:40 83% -
Di, 16.04. 8:30 84% 45 km
Di, 16.04. 8:00 84% 65 km
Di, 16.04. 7:30 86% 40 km
Di, 16.04. 7:00 87% 40 km
Di, 16.04. 6:30 88% 60 km
Ortszeit Niederschlagsmenge Niederschlagsart
Di, 16.04. 8:00 0.4 l/m2 in 12 Std. Regen
Di, 16.04. 2:00 0.1 l/m2 in 6 Std. Regen
Mo, 15.04. 20:00 4 l/m2 in 12 Std. Regen
Mo, 15.04. 14:00 2 l/m2 in 6 Std. Regen
Mo, 15.04. 8:00 0.1 l/m2 in 12 Std. Regen
Mo, 15.04. 2:00 0.1 l/m2 in 6 Std. Regen
So, 14.04. 20:00 0.0 l/m2 in 12 Std. -
So, 14.04. 14:00 0.0 l/m2 in 6 Std. -
Ortszeit Niederschlagsmenge Niederschlagsart
Di, 16.04. 9:30 <0.05 l/m2 in 30 Min Schneeregen
Di, 16.04. 9:20 keine Meldung -
Di, 16.04. 9:10 keine Meldung -
Di, 16.04. 9:00 <0.05 l/m2 in 1 Std. Regen
Di, 16.04. 8:50 keine Meldung -
Di, 16.04. 8:40 keine Meldung -
Di, 16.04. 8:30 <0.05 l/m2 in 30 Min -
Di, 16.04. 8:00 <0.05 l/m2 in 1 Std. Regen
Di, 16.04. 7:30 <0.05 l/m2 in 30 Min -
Di, 16.04. 7:00 0.1 l/m2 in 1 Std. Regen
Di, 16.04. 6:30 0.1 l/m2 in 30 Min -
Ortszeit Stärke Spitze Richtung
km/h Bft. km/h Grad Sektor
Di, 16.04. 8:00 18 3 36 220° SW
Di, 16.04. 2:00 15 3 69 260° W
Mo, 15.04. 20:00 7 2 32 190° S
Mo, 15.04. 14:00 17 3 26 190° S
Mo, 15.04. 8:00 4 1 22 230° SW
Mo, 15.04. 2:00 9 2 13 160° S
So, 14.04. 20:00 0 0 29 - -
So, 14.04. 14:00 18 3 29 250° W
Ortszeit Stärke Spitze Richtung
km/h Bft. km/h Grad Sektor
Di, 16.04. 9:30 28 4 43 230° SW
Di, 16.04. 9:20 28 4 - 230° SW
Di, 16.04. 9:10 25 4 - 230° SW
Di, 16.04. 9:00 20 4 39 220° SW
Di, 16.04. 8:50 20 4 - 220° SW
Di, 16.04. 8:40 18 3 - 220° SW
Di, 16.04. 8:30 26 4 39 210° SW
Di, 16.04. 8:00 18 3 36 220° SW
Di, 16.04. 7:30 24 4 37 210° SW
Di, 16.04. 7:00 22 4 36 210° SW
Di, 16.04. 6:30 22 4 31 210° SW
Ortszeit Untergrenze Bedeckung Gattung
total tief tief mittel hoch
Di, 16.04. 8:00 1800 m 8/8 8/8 - - -
Di, 16.04. 2:00 1800 m 8/8 - - - -
Mo, 15.04. 20:00 1500 m 7/8 7/8 - - -
Mo, 15.04. 14:00 1800 m 8/8 8/8 - - -
Mo, 15.04. 8:00 1500 m 8/8 8/8 - - -
Mo, 15.04. 2:00 1500 m 8/8 8/8 - - -
So, 14.04. 20:00 6900 m 8/8 - - - -
So, 14.04. 14:00 8100 m 8/8 - - - -
Ortszeit Bedeckungsgrad in Achtel und Wolkenuntergrenze
Di, 16.04. 9:30 8(720m)
Di, 16.04. 9:20 8
Di, 16.04. 9:10 8
Di, 16.04. 9:00 8(570m)
Di, 16.04. 8:50 8
Di, 16.04. 8:40 8
Di, 16.04. 8:30 8(510m)
Di, 16.04. 8:00 8(1800m)
Di, 16.04. 7:30 7(1500m)
Di, 16.04. 7:00 7(1500m)
Di, 16.04. 6:30 6(1050m)
Ortszeit Luftdruck NN (hPa) Tendenz (hPa in 3 Std.)
Di, 16.04. 8:00 1009 + 0,5
Di, 16.04. 2:00 1009 + 3,4
Mo, 15.04. 20:00 1004 - 2,5
Mo, 15.04. 14:00 1011 - 1,5
Mo, 15.04. 8:00 1012 0,0
Mo, 15.04. 2:00 1014 - 2,6
So, 14.04. 20:00 1017 - 1,3
So, 14.04. 14:00 1020 - 1,4
Ortszeit Luftdruck NN (hPa) Tendenz (hPa in 3 Std.)
Di, 16.04. 9:30 1009 + 0,4
Di, 16.04. 9:20 1009 keine Meldung
Di, 16.04. 9:10 1009 keine Meldung
Di, 16.04. 9:00 1009 + 0,2
Di, 16.04. 8:50 1009 keine Meldung
Di, 16.04. 8:40 1010 keine Meldung
Di, 16.04. 8:30 1009 + 0,1
Di, 16.04. 8:00 1009 + 0,5
Di, 16.04. 7:30 1009 + 0,7
Di, 16.04. 7:00 1009 + 0,2
Di, 16.04. 6:30 1009 0,0
Ortszeit Schneehöhe (cm)
Di, 16.04. 8:00 0
Di, 16.04. 2:00 0
Mo, 15.04. 20:00 0
Mo, 15.04. 14:00 0
Mo, 15.04. 8:00 0
Mo, 15.04. 2:00 0
So, 14.04. 20:00 0
So, 14.04. 14:00 0
Ortszeit Schneehöhe (cm)
Di, 16.04. 9:30 0
Di, 16.04. 9:20 0
Di, 16.04. 9:10 -
Di, 16.04. 9:00 0
Di, 16.04. 8:50 0
Di, 16.04. 8:40 -
Di, 16.04. 8:30 0
Di, 16.04. 8:00 0
Di, 16.04. 7:30 0
Di, 16.04. 7:00 0
Di, 16.04. 6:30 0
Link zu dieser Seite / Seite empfehlen

Das Wetter in ...